Time;durP1;ratioP1;P1;durP2;ratioP2;P2;SDS_P1;SDS_P2;PMS_P1;PMS_P2;Temp;Humidity;BMP_temperature;BMP_pressure;BME280_temperature;BME280_humidity;BME280_pressure;Samples;Min_cycle;Max_cycle;Signal;HPM_P1;HPM_P2
2023/11/18 00:02:24;;;;;;;7.20;6.50;;;17.20;73.20;;;;;;4983249;28;20053;-80
2023/11/18 00:04:50;;;;;;;5.80;5.30;;;17.20;73.20;;;;;;4964966;28;20046;-80
2023/11/18 00:07:15;;;;;;;6.30;5.70;;;17.20;73.20;;;;;;4965404;28;20109;-80
2023/11/18 00:09:45;;;;;;;6.50;5.93;;;17.20;73.20;;;;;;4964185;28;20050;-80
2023/11/18 00:12:11;;;;;;;6.10;5.60;;;17.20;73.30;;;;;;4962996;28;20039;-80
2023/11/18 00:14:37;;;;;;;7.05;6.40;;;17.20;73.20;;;;;;4965630;28;20157;-80
2023/11/18 00:17:04;;;;;;;5.78;5.18;;;17.20;73.20;;;;;;4966725;28;20512;-79
2023/11/18 00:19:29;;;;;;;5.70;5.20;;;17.20;73.20;;;;;;4951875;28;20100;-80
2023/11/18 00:21:55;;;;;;;6.45;5.60;;;17.20;73.20;;;;;;4944783;28;20052;-80
2023/11/18 00:24:21;;;;;;;5.78;5.35;;;17.20;73.30;;;;;;4948610;28;20047;-80
2023/11/18 00:26:46;;;;;;;5.93;5.13;;;17.20;73.30;;;;;;4963234;28;20108;-80
2023/11/18 00:29:12;;;;;;;5.80;5.30;;;17.20;73.20;;;;;;4966713;28;20059;-80
2023/11/18 00:31:37;;;;;;;5.50;5.03;;;17.20;73.20;;;;;;4968159;28;20129;-80
2023/11/18 00:34:03;;;;;;;5.45;5.03;;;17.20;73.30;;;;;;4965172;28;20050;-80
2023/11/18 00:36:29;;;;;;;5.60;5.10;;;17.20;73.20;;;;;;4964798;28;20572;-79
2023/11/18 00:38:54;;;;;;;5.80;5.30;;;17.20;73.20;;;;;;4967028;28;20405;-79
2023/11/18 00:41:21;;;;;;;5.18;4.78;;;17.20;73.70;;;;;;4966186;28;20130;-79
2023/11/18 00:43:47;;;;;;;6.10;5.53;;;17.20;73.20;;;;;;4962686;28;20450;-79
2023/11/18 00:46:12;;;;;;;5.43;4.93;;;17.20;73.20;;;;;;4968761;28;20504;-79
2023/11/18 00:48:38;;;;;;;5.35;4.85;;;17.20;73.30;;;;;;4965121;28;20043;-80
2023/11/18 00:51:05;;;;;;;4.65;4.25;;;17.20;73.20;;;;;;4968061;28;20047;-80
2023/11/18 00:53:31;;;;;;;4.60;4.30;;;17.20;73.20;;;;;;4965008;28;20043;-80
2023/11/18 00:55:56;;;;;;;5.20;4.80;;;17.20;73.20;;;;;;4966517;28;20523;-80
2023/11/18 00:58:22;;;;;;;4.47;4.18;;;17.20;73.30;;;;;;4950262;28;20100;-80
2023/11/18 01:00:47;;;;;;;4.05;3.75;;;17.20;73.20;;;;;;4965184;28;20181;-81
2023/11/18 01:03:13;;;;;;;4.38;3.97;;;17.20;73.20;;;;;;4982344;28;20067;-80
2023/11/18 01:05:39;;;;;;;4.70;4.30;;;17.20;73.20;;;;;;4965654;28;20030;-80
2023/11/18 01:08:05;;;;;;;4.20;3.90;;;17.20;73.20;;;;;;4968527;28;20513;-81
2023/11/18 01:10:31;;;;;;;4.07;3.80;;;17.20;73.20;;;;;;4967963;28;20041;-80
2023/11/18 01:12:57;;;;;;;4.00;3.70;;;17.20;73.20;;;;;;4965635;28;20133;-80
2023/11/18 01:15:23;;;;;;;4.53;4.13;;;17.20;73.10;;;;;;4962488;28;20043;-81
2023/11/18 01:17:49;;;;;;;4.82;4.53;;;17.20;73.50;;;;;;4966307;28;20049;-80
2023/11/18 01:20:20;;;;;;;4.40;4.10;;;17.20;73.30;;;;;;4967080;28;20030;-80
2023/11/18 01:22:47;;;;;;;4.60;4.20;;;17.20;73.20;;;;;;4965377;28;20038;-79
2023/11/18 01:25:12;;;;;;;4.25;3.95;;;17.20;73.20;;;;;;4967556;28;20050;-79
2023/11/18 01:27:38;;;;;;;4.43;4.13;;;17.20;73.30;;;;;;4966170;28;20041;-79
2023/11/18 01:30:04;;;;;;;3.88;3.60;;;17.20;73.20;;;;;;4963275;28;20815;-80
2023/11/18 01:32:30;;;;;;;4.10;3.70;;;17.20;73.20;;;;;;4963929;28;20046;-79
2023/11/18 01:34:56;;;;;;;3.67;3.38;;;17.20;73.20;;;;;;4966404;28;20413;-80
2023/11/18 01:37:23;;;;;;;3.95;3.67;;;17.20;74.10;;;;;;4969100;28;20046;-79
2023/11/18 01:39:49;;;;;;;3.80;3.50;;;17.20;73.30;;;;;;4964728;28;20117;-79
2023/11/18 01:42:15;;;;;;;4.25;3.92;;;17.10;73.30;;;;;;4966327;28;20130;-80
2023/11/18 01:44:40;;;;;;;3.83;3.53;;;17.10;73.30;;;;;;4966485;28;20414;-80
2023/11/18 01:47:06;;;;;;;3.95;3.58;;;17.10;73.50;;;;;;4966017;28;20045;-79
2023/11/18 01:49:32;;;;;;;4.00;3.80;;;17.20;73.20;;;;;;4950223;28;20039;-79
2023/11/18 01:51:59;;;;;;;3.80;3.50;;;17.20;73.20;;;;;;4947780;28;20424;-79
2023/11/18 01:54:25;;;;;;;3.67;3.45;;;17.20;73.20;;;;;;4969873;28;20035;-80
2023/11/18 01:56:51;;;;;;;4.28;3.35;;;17.20;73.30;;;;;;4951780;28;20398;-81
2023/11/18 01:59:20;;;;;;;3.70;3.40;;;17.10;73.30;;;;;;4969641;28;20520;-80
2023/11/18 02:01:51;;;;;;;3.42;3.13;;;17.20;73.30;;;;;;4967373;28;20072;-80
2023/11/18 02:04:19;;;;;;;3.10;2.90;;;17.20;74.20;;;;;;4968243;28;20547;-80
2023/11/18 02:06:44;;;;;;;3.60;3.30;;;17.10;73.30;;;;;;4968484;28;20537;-80
2023/11/18 02:09:11;;;;;;;3.25;2.85;;;17.20;73.30;;;;;;4951326;28;20159;-80
2023/11/18 02:11:41;;;;;;;3.10;2.90;;;17.10;73.30;;;;;;4966937;28;20045;-80
2023/11/18 02:14:10;;;;;;;2.92;2.72;;;17.10;73.30;;;;;;4950241;28;20126;-81
2023/11/18 02:16:37;;;;;;;2.90;2.70;;;17.10;73.30;;;;;;4967373;28;20417;-81
2023/11/18 02:19:02;;;;;;;3.17;2.97;;;17.10;73.30;;;;;;4951658;28;20047;-81
2023/11/18 02:21:28;;;;;;;3.13;2.90;;;17.10;73.40;;;;;;4966378;28;20053;-80
2023/11/18 02:23:54;;;;;;;3.17;2.97;;;17.10;73.30;;;;;;4950523;28;20085;-78
2023/11/18 02:26:23;;;;;;;3.38;3.17;;;17.10;73.40;;;;;;4953852;28;20050;-78
2023/11/18 02:28:49;;;;;;;2.95;2.75;;;17.10;73.40;;;;;;4968757;28;20556;-79
2023/11/18 02:31:16;;;;;;;3.25;3.05;;;17.10;73.40;;;;;;4952615;28;20075;-79
2023/11/18 02:34:00;;;;;;;3.08;2.88;;;17.10;73.40;;;;;;4951325;28;20396;-79
2023/11/18 02:36:37;;;;;;;2.80;2.60;;;17.10;73.40;;;;;;4948036;28;20436;-79
2023/11/18 02:39:08;;;;;;;3.30;3.05;;;17.10;73.40;;;;;;4950840;28;20129;-79
2023/11/18 02:41:35;;;;;;;3.10;2.90;;;17.10;73.40;;;;;;4968129;28;20046;-79
2023/11/18 02:44:03;;;;;;;2.95;2.75;;;17.10;73.40;;;;;;4984779;28;20046;-80
2023/11/18 02:46:28;;;;;;;2.80;2.60;;;17.10;73.40;;;;;;4937821;28;20042;-81
2023/11/18 02:48:55;;;;;;;2.55;2.35;;;17.20;73.50;;;;;;4970281;28;20041;-79
2023/11/18 02:51:20;;;;;;;2.65;2.45;;;17.10;73.60;;;;;;4962585;28;20043;-80
2023/11/18 02:53:46;;;;;;;2.75;2.55;;;17.10;73.70;;;;;;4983321;28;20440;-80
2023/11/18 02:56:11;;;;;;;2.72;2.53;;;17.10;73.70;;;;;;4968587;28;20038;-79
2023/11/18 02:58:37;;;;;;;2.65;2.50;;;17.10;73.70;;;;;;4967813;28;20120;-80
2023/11/18 03:01:04;;;;;;;2.00;1.90;;;17.10;73.80;;;;;;4965573;28;20054;-80
2023/11/18 03:03:30;;;;;;;2.50;2.38;;;17.10;73.80;;;;;;4949695;28;20047;-81
2023/11/18 03:05:55;;;;;;;2.60;2.45;;;17.10;73.80;;;;;;4967399;28;20382;-81
2023/11/18 03:08:21;;;;;;;2.60;2.40;;;17.10;73.80;;;;;;4949377;28;20031;-81
2023/11/18 03:10:47;;;;;;;2.80;2.60;;;17.10;73.90;;;;;;4966788;28;20093;-79
2023/11/18 03:13:12;;;;;;;2.72;2.30;;;17.10;73.90;;;;;;4951673;28;20038;-80
2023/11/18 03:15:38;;;;;;;2.75;2.55;;;17.10;74.10;;;;;;4967158;28;20046;-81
2023/11/18 03:18:05;;;;;;;3.10;2.90;;;17.10;74.20;;;;;;4970470;28;20030;-80
2023/11/18 03:20:31;;;;;;;3.20;2.70;;;17.10;74.20;;;;;;4975624;28;20035;-79
2023/11/18 03:22:59;;;;;;;2.50;2.30;;;17.10;74.10;;;;;;4951611;28;20047;-80
2023/11/18 03:25:25;;;;;;;2.85;2.60;;;17.10;74.70;;;;;;4964928;28;20046;-79
2023/11/18 03:27:51;;;;;;;3.40;3.15;;;17.10;74.20;;;;;;4966938;28;20473;-79
2023/11/18 03:30:16;;;;;;;3.25;3.05;;;17.20;74.50;;;;;;4969411;28;20046;-79
2023/11/18 03:32:42;;;;;;;2.72;2.40;;;17.10;74.40;;;;;;4966525;28;20547;-79
2023/11/18 03:35:11;;;;;;;2.50;2.40;;;17.10;74.20;;;;;;4968071;28;20386;-78
2023/11/18 03:37:43;;;;;;;2.60;2.40;;;17.10;74.30;;;;;;4966490;28;20088;-78
2023/11/18 03:40:11;;;;;;;2.80;2.60;;;17.10;74.30;;;;;;4965061;28;20068;-79
2023/11/18 03:42:37;;;;;;;2.63;2.42;;;17.20;74.30;;;;;;4966689;28;20054;-80
2023/11/18 03:45:04;;;;;;;2.22;2.13;;;17.20;74.40;;;;;;4966820;28;20038;-80
2023/11/18 03:47:30;;;;;;;2.33;2.22;;;17.10;74.50;;;;;;4968276;28;20174;-80
2023/11/18 03:49:56;;;;;;;2.17;2.08;;;17.10;75.20;;;;;;4968096;28;20529;-80
2023/11/18 03:52:22;;;;;;;2.70;2.50;;;17.20;74.50;;;;;;4967569;28;20294;-79
2023/11/18 03:54:47;;;;;;;2.03;1.92;;;17.10;74.40;;;;;;4965782;28;20043;-80
2023/11/18 03:57:13;;;;;;;2.42;2.22;;;17.10;74.50;;;;;;4968062;28;20050;-80
2023/11/18 03:59:41;;;;;;;2.20;2.10;;;17.20;74.60;;;;;;4964869;28;20047;-80
2023/11/18 04:02:07;;;;;;;2.50;2.30;;;17.10;74.60;;;;;;4966910;28;20093;-80
2023/11/18 04:04:33;;;;;;;2.60;2.50;;;17.10;74.60;;;;;;4963981;28;20549;-80
2023/11/18 04:07:00;;;;;;;2.05;1.95;;;17.10;74.60;;;;;;4964835;28;20043;-79
2023/11/18 04:09:27;;;;;;;2.17;2.08;;;17.20;74.60;;;;;;4966601;28;20521;-80
2023/11/18 04:11:52;;;;;;;2.53;2.35;;;17.10;74.70;;;;;;4967015;28;20038;-80
2023/11/18 04:14:18;;;;;;;2.33;2.13;;;17.10;74.50;;;;;;4967664;28;20516;-80
2023/11/18 04:16:45;;;;;;;2.47;2.38;;;17.10;74.60;;;;;;4967023;28;20440;-80
2023/11/18 04:19:11;;;;;;;2.42;2.33;;;17.10;74.60;;;;;;4967867;28;20046;-80
2023/11/18 04:21:38;;;;;;;2.13;2.03;;;17.10;74.50;;;;;;4950800;28;20066;-81
2023/11/18 04:24:05;;;;;;;3.17;2.63;;;17.20;74.50;;;;;;4965096;28;20073;-81
2023/11/18 04:26:31;;;;;;;2.47;2.33;;;17.20;74.40;;;;;;4967456;28;20517;-81
2023/11/18 04:28:57;;;;;;;3.08;2.78;;;17.20;74.50;;;;;;4965971;28;20051;-80
2023/11/18 04:31:23;;;;;;;2.33;2.22;;;17.20;74.40;;;;;;4970022;28;20039;-80
2023/11/18 04:33:48;;;;;;;2.20;2.10;;;17.20;74.50;;;;;;4966304;28;20583;-81
2023/11/18 04:36:16;;;;;;;2.13;2.03;;;17.20;74.40;;;;;;4967137;28;20027;-80
2023/11/18 04:38:41;;;;;;;1.73;1.63;;;17.20;74.50;;;;;;4965553;28;20092;-81
2023/11/18 04:41:07;;;;;;;1.90;1.80;;;17.20;74.60;;;;;;4966432;28;20042;-80
2023/11/18 04:43:32;;;;;;;2.33;2.22;;;17.20;74.40;;;;;;4966182;28;20405;-80
2023/11/18 04:45:59;;;;;;;2.33;2.15;;;17.20;74.30;;;;;;4951330;28;20137;-80
2023/11/18 04:48:24;;;;;;;2.10;2.00;;;17.20;74.40;;;;;;4966654;28;20074;-79
2023/11/18 04:50:50;;;;;;;2.58;1.90;;;17.20;74.30;;;;;;4966018;28;20582;-80
2023/11/18 04:53:15;;;;;;;2.30;2.10;;;17.20;74.30;;;;;;4965573;28;20101;-79
2023/11/18 04:55:41;;;;;;;1.95;1.85;;;17.20;74.30;;;;;;4965562;28;20053;-79
2023/11/18 04:58:07;;;;;;;2.00;1.90;;;17.20;74.40;;;;;;4966889;28;20065;-79
2023/11/18 05:00:34;;;;;;;2.08;1.98;;;17.20;74.30;;;;;;4966772;28;20057;-79
2023/11/18 05:03:00;;;;;;;2.30;2.10;;;17.20;74.30;;;;;;4965419;28;20035;-79
2023/11/18 05:05:25;;;;;;;1.92;1.83;;;17.20;74.40;;;;;;4966689;28;20497;-79
2023/11/18 05:07:51;;;;;;;1.90;1.80;;;17.20;74.40;;;;;;4965950;28;20139;-79
2023/11/18 05:10:18;;;;;;;1.70;1.60;;;17.20;74.70;;;;;;4967237;28;20681;-80
2023/11/18 05:12:44;;;;;;;2.00;1.90;;;17.20;75.40;;;;;;4961999;28;20129;-80
2023/11/18 05:15:09;;;;;;;2.08;1.88;;;17.20;74.70;;;;;;4964198;28;20639;-80
2023/11/18 05:17:38;;;;;;;2.85;2.00;;;17.20;74.80;;;;;;4962985;28;20038;-79
2023/11/18 05:20:04;;;;;;;1.83;1.73;;;17.30;75.00;;;;;;4964911;28;20046;-79
2023/11/18 05:22:30;;;;;;;1.73;1.63;;;17.20;75.10;;;;;;4951355;28;20047;-79
2023/11/18 05:24:57;;;;;;;1.70;1.60;;;17.20;75.00;;;;;;4963655;28;20421;-79
2023/11/18 05:27:22;;;;;;;1.70;1.60;;;17.20;75.10;;;;;;4968497;28;20051;-79
2023/11/18 05:29:54;;;;;;;1.73;1.63;;;17.30;75.20;;;;;;4970050;28;20057;-79
2023/11/18 05:32:20;;;;;;;1.55;1.45;;;17.20;75.40;;;;;;4969710;28;20126;-79
2023/11/18 05:34:46;;;;;;;1.88;1.77;;;17.20;75.30;;;;;;4970749;28;20513;-79
2023/11/18 05:37:12;;;;;;;1.75;1.65;;;17.20;75.20;;;;;;4971613;28;20057;-79
2023/11/18 05:39:42;;;;;;;1.65;1.55;;;17.20;75.20;;;;;;4986203;28;20686;-80
2023/11/18 05:42:10;;;;;;;1.60;1.50;;;17.20;75.30;;;;;;4965835;28;20508;-80
2023/11/18 05:44:37;;;;;;;2.08;1.98;;;17.20;75.30;;;;;;4969349;28;20047;-80
2023/11/18 05:47:03;;;;;;;1.70;1.60;;;17.20;75.40;;;;;;4967728;28;20149;-80
2023/11/18 05:49:29;;;;;;;1.65;1.55;;;17.20;75.20;;;;;;4954796;28;20122;-80
2023/11/18 05:51:54;;;;;;;1.33;1.23;;;17.20;75.30;;;;;;4953249;28;20042;-80
2023/11/18 05:54:20;;;;;;;1.52;1.42;;;17.20;75.30;;;;;;4971157;28;20175;-79
2023/11/18 05:56:46;;;;;;;1.85;1.75;;;17.20;75.20;;;;;;4969632;28;20062;-79
2023/11/18 05:59:13;;;;;;;3.00;1.70;;;17.20;75.20;;;;;;4969867;28;20508;-79
2023/11/18 06:01:38;;;;;;;1.85;1.75;;;17.20;75.90;;;;;;4966425;28;20047;-79
2023/11/18 06:04:08;;;;;;;1.70;1.60;;;17.20;75.20;;;;;;4967630;28;20045;-79
2023/11/18 06:06:33;;;;;;;1.70;1.30;;;17.20;75.20;;;;;;4966230;28;20073;-79
2023/11/18 06:09:04;;;;;;;1.70;1.60;;;17.20;75.10;;;;;;4969988;28;20083;-79
2023/11/18 06:11:30;;;;;;;1.67;1.58;;;17.20;75.20;;;;;;4969514;28;20138;-81
2023/11/18 06:13:56;;;;;;;1.83;1.73;;;17.20;75.20;;;;;;4967352;28;20178;-81
2023/11/18 06:16:24;;;;;;;1.40;1.30;;;17.20;75.20;;;;;;4969113;28;20042;-81
2023/11/18 06:18:52;;;;;;;1.50;1.40;;;17.20;75.10;;;;;;4966402;28;20086;-81
2023/11/18 06:21:19;;;;;;;1.40;1.30;;;17.20;75.10;;;;;;4951997;28;20058;-81
2023/11/18 06:23:46;;;;;;;1.80;1.70;;;17.20;75.10;;;;;;4965134;28;20138;-81
2023/11/18 06:26:12;;;;;;;2.08;1.60;;;17.20;75.10;;;;;;4967319;28;20035;-81
2023/11/18 06:28:42;;;;;;;1.70;1.60;;;17.20;75.90;;;;;;4937675;28;20405;-81
2023/11/18 06:31:08;;;;;;;1.33;1.25;;;17.20;75.40;;;;;;4971624;28;20069;-82
2023/11/18 06:33:44;;;;;;;1.50;1.40;;;17.20;75.20;;;;;;4967307;28;20039;-82
2023/11/18 06:36:21;;;;;;;2.10;1.73;;;17.20;75.20;;;;;;4947635;28;20046;-81
2023/11/18 06:38:49;;;;;;;1.60;1.50;;;17.20;75.20;;;;;;4966951;28;20046;-82
2023/11/18 06:41:16;;;;;;;1.40;1.30;;;17.20;75.10;;;;;;4965604;28;20047;-82
2023/11/18 06:43:51;;;;;;;1.40;1.30;;;17.20;75.10;;;;;;4952401;28;20120;-82
2023/11/18 06:46:20;;;;;;;1.52;1.42;;;17.20;75.20;;;;;;4982443;28;20062;-81
2023/11/18 06:48:50;;;;;;;1.40;1.30;;;17.20;75.20;;;;;;4983551;28;20043;-81
2023/11/18 06:51:16;;;;;;;1.52;1.40;;;17.20;75.20;;;;;;4949937;28;20113;-82
2023/11/18 06:53:43;;;;;;;1.10;1.10;;;17.20;75.90;;;;;;4967730;28;20051;-82
2023/11/18 06:56:09;;;;;;;1.40;1.30;;;17.20;75.30;;;;;;4967576;28;20050;-83
2023/11/18 06:58:38;;;;;;;1.58;1.48;;;17.20;75.10;;;;;;4968126;28;20097;-82
2023/11/18 07:01:05;;;;;;;1.30;1.20;;;17.20;75.10;;;;;;4951045;28;20058;-82
2023/11/18 07:03:31;;;;;;;1.15;1.15;;;17.20;75.10;;;;;;4965622;28;20031;-82
2023/11/18 07:05:57;;;;;;;1.00;0.90;;;17.20;75.40;;;;;;4970583;28;20031;-83
2023/11/18 07:08:22;;;;;;;1.13;1.10;;;17.20;75.10;;;;;;4968531;28;20038;-83
2023/11/18 07:10:48;;;;;;;1.13;1.08;;;17.20;75.10;;;;;;4967691;28;20047;-81
2023/11/18 07:13:14;;;;;;;1.00;1.00;;;17.20;75.10;;;;;;4952797;28;20059;-83
2023/11/18 07:15:41;;;;;;;1.08;0.98;;;17.20;75.20;;;;;;4966352;28;20539;-81
2023/11/18 07:18:08;;;;;;;1.13;1.13;;;17.20;75.30;;;;;;4967400;28;20038;-81
2023/11/18 07:20:34;;;;;;;1.20;1.10;;;17.20;75.10;;;;;;4963594;28;20478;-80
2023/11/18 07:23:00;;;;;;;1.05;1.00;;;17.20;75.30;;;;;;4950225;28;20572;-80
2023/11/18 07:25:26;;;;;;;1.48;1.30;;;17.20;75.00;;;;;;4963546;28;20519;-81
2023/11/18 07:27:51;;;;;;;1.05;1.02;;;17.20;75.10;;;;;;4962398;28;20122;-81
2023/11/18 07:30:18;;;;;;;0.80;0.80;;;17.20;75.20;;;;;;4967040;28;20070;-81
2023/11/18 07:32:44;;;;;;;1.20;1.20;;;17.20;75.20;;;;;;4960896;28;20046;-81
2023/11/18 07:35:09;;;;;;;0.88;0.85;;;17.20;75.30;;;;;;4974201;28;20057;-81
2023/11/18 07:37:38;;;;;;;2.65;0.82;;;17.20;75.40;;;;;;4931337;28;20043;-81
2023/11/18 07:40:05;;;;;;;0.60;0.60;;;17.20;75.40;;;;;;4929242;28;20138;-82
2023/11/18 07:42:34;;;;;;;0.80;0.80;;;17.20;75.30;;;;;;4979406;28;20137;-82
2023/11/18 07:45:04;;;;;;;1.05;0.80;;;17.20;75.50;;;;;;4962113;28;20051;-82
2023/11/18 07:47:34;;;;;;;0.70;0.70;;;17.10;75.50;;;;;;4947696;28;20150;-82
2023/11/18 07:49:59;;;;;;;1.08;1.00;;;17.20;75.50;;;;;;4961783;28;20133;-83
2023/11/18 07:52:27;;;;;;;1.10;1.05;;;17.20;75.40;;;;;;4955877;28;20134;-82
2023/11/18 07:54:53;;;;;;;0.80;0.73;;;17.20;75.40;;;;;;4962626;28;20050;-81
2023/11/18 07:57:19;;;;;;;0.90;0.90;;;17.20;75.30;;;;;;4961675;28;20575;-81
2023/11/18 07:59:44;;;;;;;0.93;0.93;;;17.20;75.20;;;;;;4963275;28;20552;-81
2023/11/18 08:02:10;;;;;;;0.98;0.98;;;17.20;75.30;;;;;;4936980;28;20050;-80
2023/11/18 08:04:36;;;;;;;1.00;1.00;;;17.20;75.60;;;;;;4963597;28;20410;-81
2023/11/18 08:07:04;;;;;;;0.80;0.80;;;17.20;75.50;;;;;;4948984;28;20043;-82
2023/11/18 08:09:31;;;;;;;0.98;0.98;;;17.20;75.60;;;;;;4932652;28;20049;-82
2023/11/18 08:11:58;;;;;;;1.63;0.95;;;17.20;75.50;;;;;;4963830;28;20050;-82
2023/11/18 08:14:24;;;;;;;1.05;0.90;;;17.20;75.40;;;;;;4949418;28;20729;-82
2023/11/18 08:16:51;;;;;;;0.80;0.80;;;17.20;75.40;;;;;;4950773;28;20074;-82
2023/11/18 08:19:16;;;;;;;0.82;0.82;;;17.20;75.40;;;;;;4965011;28;20042;-83
2023/11/18 08:21:42;;;;;;;0.63;0.63;;;17.20;75.50;;;;;;4964033;28;20051;-81
2023/11/18 08:24:08;;;;;;;0.65;0.65;;;17.10;75.50;;;;;;4966971;28;20478;-82
2023/11/18 08:26:35;;;;;;;0.80;0.80;;;17.20;75.40;;;;;;4960909;28;20043;-82
2023/11/18 08:29:00;;;;;;;2.28;0.95;;;17.20;75.50;;;;;;4963641;28;20042;-82
2023/11/18 08:31:26;;;;;;;1.25;0.82;;;17.20;75.50;;;;;;4946917;28;20429;-82
2023/11/18 08:33:54;;;;;;;0.80;0.80;;;17.20;75.30;;;;;;4961227;28;20051;-83
2023/11/18 08:36:20;;;;;;;2.17;0.80;;;17.20;75.60;;;;;;4946596;28;20042;-83
2023/11/18 08:38:47;;;;;;;0.80;0.80;;;17.20;75.50;;;;;;4962938;28;20506;-83
2023/11/18 08:41:12;;;;;;;0.70;0.70;;;17.10;75.40;;;;;;4963499;28;20175;-83
2023/11/18 08:43:40;;;;;;;1.08;0.70;;;17.10;75.70;;;;;;4947534;28;20563;-83
2023/11/18 08:46:07;;;;;;;0.80;0.70;;;17.20;75.60;;;;;;4963522;28;20034;-81
2023/11/18 08:48:33;;;;;;;3.25;0.80;;;17.10;75.70;;;;;;4962230;28;20027;-80
2023/11/18 08:51:01;;;;;;;0.73;0.73;;;17.20;75.90;;;;;;4962382;28;20733;-80
2023/11/18 08:53:27;;;;;;;0.70;0.65;;;17.20;76.20;;;;;;4947748;28;20039;-80
2023/11/18 08:55:56;;;;;;;0.50;0.50;;;17.20;76.20;;;;;;4966866;28;20047;-80
2023/11/18 08:58:21;;;;;;;1.75;0.70;;;17.20;75.80;;;;;;4963609;28;20058;-80
2023/11/18 09:00:55;;;;;;;1.15;0.70;;;17.20;76.00;;;;;;4969551;28;20050;-79
2023/11/18 09:03:25;;;;;;;1.15;0.63;;;17.20;76.10;;;;;;4970094;28;20095;-80
2023/11/18 09:05:57;;;;;;;0.60;0.50;;;17.20;76.10;;;;;;4969084;28;20065;-80
2023/11/18 09:08:27;;;;;;;0.80;0.75;;;17.20;75.80;;;;;;4963953;28;20075;-80
2023/11/18 09:10:53;;;;;;;0.75;0.75;;;17.20;76.40;;;;;;4967982;28;20126;-81
2023/11/18 09:13:22;;;;;;;3.33;0.80;;;17.30;75.90;;;;;;4952748;28;20501;-80
2023/11/18 09:15:49;;;;;;;1.17;0.88;;;17.30;76.10;;;;;;4620634;28;9999674;-81
2023/11/18 09:18:17;;;;;;;2.10;0.98;;;17.20;76.40;;;;;;4950861;28;20050;-81
2023/11/18 09:20:43;;;;;;;1.40;0.80;;;17.30;76.40;;;;;;4964276;28;20051;-82
2023/11/18 09:23:09;;;;;;;0.60;0.60;;;17.20;76.20;;;;;;4923780;28;20517;-82
2023/11/18 09:25:36;;;;;;;0.70;0.60;;;17.20;76.10;;;;;;4927862;28;20035;-81
2023/11/18 09:28:03;;;;;;;0.63;0.63;;;17.20;76.30;;;;;;4959775;28;20039;-81
2023/11/18 09:30:29;;;;;;;0.73;0.73;;;17.20;76.10;;;;;;4963752;28;20043;-82
2023/11/18 09:32:55;;;;;;;0.75;0.60;;;17.20;76.30;;;;;;4964072;28;20043;-82
2023/11/18 09:35:21;;;;;;;0.60;0.60;;;17.30;76.20;;;;;;4961074;28;20035;-81
2023/11/18 09:37:47;;;;;;;0.70;0.55;;;17.30;76.40;;;;;;4958056;28;20046;-81
2023/11/18 09:40:15;;;;;;;0.60;0.60;;;17.30;76.30;;;;;;4966721;28;20070;-81
2023/11/18 09:42:43;;;;;;;0.70;0.70;;;17.30;76.20;;;;;;4960468;28;20102;-81
2023/11/18 09:45:13;;;;;;;0.75;0.75;;;17.30;76.50;;;;;;4965887;28;20043;-81
2023/11/18 09:47:42;;;;;;;0.82;0.70;;;17.30;76.50;;;;;;4965105;28;20075;-81
2023/11/18 09:50:10;;;;;;;0.60;0.60;;;17.30;76.10;;;;;;4967438;28;20636;-81
2023/11/18 09:52:36;;;;;;;0.85;0.70;;;17.40;75.90;;;;;;4967440;28;20039;-81
2023/11/18 09:55:02;;;;;;;0.77;0.77;;;17.30;76.10;;;;;;4954621;28;20093;-81
2023/11/18 09:57:41;;;;;;;0.50;0.50;;;17.30;76.30;;;;;;4966160;28;20055;-81
2023/11/18 10:00:19;;;;;;;0.50;0.50;;;17.30;76.30;;;;;;4966834;28;20553;-81
2023/11/18 10:02:46;;;;;;;0.50;0.50;;;17.30;76.40;;;;;;4965441;28;20423;-81
2023/11/18 10:05:14;;;;;;;0.82;0.82;;;17.30;76.40;;;;;;4968947;28;20177;-81
2023/11/18 10:07:41;;;;;;;2.33;0.70;;;17.30;76.80;;;;;;4935718;28;20186;-81
2023/11/18 10:10:14;;;;;;;0.60;0.60;;;17.30;76.60;;;;;;4952508;28;20050;-81
2023/11/18 10:12:44;;;;;;;0.70;0.68;;;17.20;76.50;;;;;;4965284;28;20039;-81
2023/11/18 10:15:13;;;;;;;0.77;0.77;;;17.20;76.50;;;;;;4964129;28;20046;-81
2023/11/18 10:17:54;;;;;;;1.35;0.60;;;17.20;76.50;;;;;;4967943;28;20051;-82
2023/11/18 10:20:44;;;;;;;0.70;0.70;;;17.20;76.60;;;;;;4963634;28;20055;-81
2023/11/18 10:23:10;;;;;;;0.55;0.52;;;17.20;76.50;;;;;;4965824;28;20073;-81
2023/11/18 10:25:40;;;;;;;2.53;0.75;;;17.20;76.60;;;;;;4967065;28;20070;-81
2023/11/18 10:28:09;;;;;;;0.85;0.73;;;17.20;76.40;;;;;;4967133;28;20049;-81
2023/11/18 10:30:46;;;;;;;0.40;0.40;;;17.20;76.40;;;;;;4967811;28;20043;-81
2023/11/18 10:33:13;;;;;;;0.90;0.70;;;17.20;76.50;;;;;;4963806;28;20040;-81
2023/11/18 10:35:40;;;;;;;1.05;0.77;;;17.20;76.50;;;;;;4968192;28;20142;-80
2023/11/18 10:38:06;;;;;;;1.92;0.65;;;17.20;76.50;;;;;;4967507;28;20516;-80
2023/11/18 10:40:36;;;;;;;0.70;0.65;;;17.20;76.70;;;;;;4968096;28;20528;-81
2023/11/18 10:43:09;;;;;;;1.95;0.70;;;17.20;76.60;;;;;;4967393;28;20049;-80
2023/11/18 10:45:38;;;;;;;0.75;0.60;;;17.20;76.90;;;;;;4965398;28;20047;-81
2023/11/18 10:48:05;;;;;;;0.57;0.57;;;17.20;76.80;;;;;;4964654;28;20071;-81
2023/11/18 10:50:32;;;;;;;0.45;0.45;;;17.20;76.80;;;;;;4979449;28;20053;-81
2023/11/18 10:53:02;;;;;;;1.33;0.60;;;17.20;77.60;;;;;;4982312;28;20047;-81
2023/11/18 10:55:36;;;;;;;1.63;0.60;;;17.20;77.00;;;;;;4966338;28;20037;-81
2023/11/18 10:58:01;;;;;;;0.70;0.70;;;17.20;76.90;;;;;;4944026;28;20035;-81
2023/11/18 11:00:33;;;;;;;1.40;0.85;;;17.20;77.70;;;;;;4965525;28;20050;-80
2023/11/18 11:02:59;;;;;;;0.57;0.50;;;17.20;76.90;;;;;;4947002;28;20402;-81
2023/11/18 11:05:37;;;;;;;0.82;0.70;;;17.20;76.80;;;;;;4965593;28;20074;-81
2023/11/18 11:08:05;;;;;;;0.60;0.60;;;17.20;76.80;;;;;;4964702;28;20070;-82
2023/11/18 11:10:30;;;;;;;0.70;0.60;;;17.20;76.30;;;;;;4950548;28;20057;-82
2023/11/18 11:12:57;;;;;;;1.00;0.50;;;17.30;76.40;;;;;;4965926;28;20067;-84
2023/11/18 11:15:28;;;;;;;1.48;0.60;;;17.30;76.10;;;;;;4960402;28;20050;-83
2023/11/18 11:17:55;;;;;;;1.95;0.63;;;17.30;76.50;;;;;;4965332;28;20057;-82
2023/11/18 11:20:27;;;;;;;0.45;0.40;;;17.30;77.00;;;;;;4962700;28;20043;-82
2023/11/18 11:23:49;;;;;;;0.60;0.60;;;17.30;76.30;;;;;;4776908;28;10000584;-82
2023/11/18 11:26:38;;;;;;;0.77;0.50;;;17.30;76.40;;;;;;4932794;28;20260;-80
2023/11/18 11:29:42;;;;;;;28.42;7.25;;;17.30;76.60;;;;;;4962162;28;20126;-80
2023/11/18 11:32:16;;;;;;;35.03;9.77;;;17.30;76.90;;;;;;4964153;28;20141;-80
2023/11/18 11:35:32;;;;;;;15.38;5.05;;;17.40;77.00;;;;;;4961523;28;20105;-82
2023/11/18 11:38:09;;;;;;;7.80;3.28;;;17.40;76.60;;;;;;4966894;28;20051;-84
2023/11/18 11:40:37;;;;;;;5.13;2.20;;;17.40;78.10;;;;;;4969083;28;20086;-81
2023/11/18 11:43:04;;;;;;;5.47;2.28;;;17.50;77.20;;;;;;4966491;28;20105;-81
2023/11/18 11:45:30;;;;;;;4.90;1.95;;;17.40;77.30;;;;;;4962132;28;20512;-81
2023/11/18 11:48:14;;;;;;;3.20;2.10;;;17.40;77.40;;;;;;4617848;28;10000453;-80
2023/11/18 11:51:03;;;;;;;2.42;1.52;;;17.50;76.50;;;;;;4963256;28;20043;-80
2023/11/18 11:53:45;;;;;;;5.60;1.45;;;17.40;77.00;;;;;;4962574;28;20046;-80
2023/11/18 11:56:13;;;;;;;1.70;1.52;;;17.40;76.80;;;;;;4962913;28;20509;-80
2023/11/18 11:58:43;;;;;;;2.45;1.70;;;17.40;76.90;;;;;;4963737;28;20047;-81
2023/11/18 12:01:29;;;;;;;2.53;1.65;;;17.50;76.50;;;;;;4960052;28;20063;-80
2023/11/18 12:03:57;;;;;;;2.90;1.20;;;17.50;76.40;;;;;;4961981;28;20074;-82
2023/11/18 12:06:23;;;;;;;2.50;1.30;;;17.50;76.10;;;;;;4962192;28;20679;-82
2023/11/18 12:08:52;;;;;;;4.30;1.10;;;17.50;76.30;;;;;;4961444;28;20047;-82
2023/11/18 12:11:20;;;;;;;3.80;1.33;;;17.40;76.50;;;;;;4957147;28;20042;-81
2023/11/18 12:14:19;;;;;;;5.35;1.65;;;17.40;76.60;;;;;;4958720;28;20113;-84
2023/11/18 12:17:11;;;;;;;1.65;1.33;;;17.40;76.80;;;;;;4963222;28;20051;-83
2023/11/18 12:19:47;;;;;;;1.80;1.20;;;17.40;76.70;;;;;;4959984;28;20386;-82
2023/11/18 12:22:17;;;;;;;1.98;1.08;;;17.40;76.70;;;;;;4959916;28;20081;-82
2023/11/18 12:25:15;;;;;;;1.88;1.10;;;17.40;77.20;;;;;;4980212;28;20397;-82
2023/11/18 12:27:51;;;;;;;1.85;0.80;;;17.40;76.90;;;;;;4961287;28;20633;-83
2023/11/18 12:30:18;;;;;;;1.75;1.15;;;17.40;76.70;;;;;;4961355;28;20425;-83
2023/11/18 12:33:01;;;;;;;1.67;1.15;;;17.40;76.90;;;;;;4961793;28;20509;-84
2023/11/18 12:35:29;;;;;;;1.77;1.10;;;17.40;76.70;;;;;;4959291;28;20082;-83
2023/11/18 12:38:34;;;;;;;1.85;1.08;;;17.40;76.70;;;;;;4961511;28;20049;-82
2023/11/18 12:41:04;;;;;;;1.85;1.10;;;17.40;76.60;;;;;;4957279;28;22033;-81
2023/11/18 12:43:59;;;;;;;0.95;0.77;;;17.40;76.40;;;;;;4958467;28;20114;-82
2023/11/18 12:46:45;;;;;;;1.55;1.15;;;17.40;76.50;;;;;;4962523;28;20057;-84
2023/11/18 12:49:23;;;;;;;2.10;1.00;;;17.50;76.30;;;;;;4964609;28;20105;-81
2023/11/18 12:51:54;;;;;;;1.23;1.15;;;17.40;76.40;;;;;;4977541;28;20047;-82
2023/11/18 12:54:20;;;;;;;1.65;1.05;;;17.50;76.50;;;;;;4955726;28;20051;-82